sensor_id;sensor_type;location;lat;lon;timestamp;P1;durP1;ratioP1;P2;durP2;ratioP2
35893;SDS011;21994;48.204;16.516;2023-05-07T00:01:57;3.45;;;0.30;;
35893;SDS011;21994;48.204;16.516;2023-05-07T00:04:22;2.40;;;0.47;;
35893;SDS011;21994;48.204;16.516;2023-05-07T00:06:48;4.43;;;0.43;;
35893;SDS011;21994;48.204;16.516;2023-05-07T00:09:14;0.95;;;0.38;;
35893;SDS011;21994;48.204;16.516;2023-05-07T00:11:41;0.50;;;0.35;;
35893;SDS011;21994;48.204;16.516;2023-05-07T00:14:07;1.00;;;0.45;;
35893;SDS011;21994;48.204;16.516;2023-05-07T00:16:33;0.65;;;0.65;;
35893;SDS011;21994;48.204;16.516;2023-05-07T00:18:59;1.20;;;0.38;;
35893;SDS011;21994;48.204;16.516;2023-05-07T00:21:25;0.00;;;0.00;;
35893;SDS011;21994;48.204;16.516;2023-05-07T00:23:52;0.65;;;0.43;;
35893;SDS011;21994;48.204;16.516;2023-05-07T00:26:19;1.70;;;1.05;;
35893;SDS011;21994;48.204;16.516;2023-05-07T00:28:45;7.07;;;2.60;;
35893;SDS011;21994;48.204;16.516;2023-05-07T00:31:11;2.67;;;1.27;;
35893;SDS011;21994;48.204;16.516;2023-05-07T00:33:37;2.83;;;1.98;;
35893;SDS011;21994;48.204;16.516;2023-05-07T00:36:04;2.22;;;1.33;;
35893;SDS011;21994;48.204;16.516;2023-05-07T00:38:30;3.20;;;2.15;;
35893;SDS011;21994;48.204;16.516;2023-05-07T00:40:56;1.65;;;1.15;;
35893;SDS011;21994;48.204;16.516;2023-05-07T00:43:22;3.10;;;0.93;;
35893;SDS011;21994;48.204;16.516;2023-05-07T00:45:48;0.13;;;0.13;;
35893;SDS011;21994;48.204;16.516;2023-05-07T00:48:14;0.52;;;0.25;;
35893;SDS011;21994;48.204;16.516;2023-05-07T00:50:41;2.28;;;0.60;;
35893;SDS011;21994;48.204;16.516;2023-05-07T00:53:07;0.47;;;0.13;;
35893;SDS011;21994;48.204;16.516;2023-05-07T00:55:33;0.95;;;0.65;;
35893;SDS011;21994;48.204;16.516;2023-05-07T00:58:01;7.03;;;1.58;;
35893;SDS011;21994;48.204;16.516;2023-05-07T01:00:27;0.13;;;0.13;;
35893;SDS011;21994;48.204;16.516;2023-05-07T01:02:53;0.50;;;0.30;;
35893;SDS011;21994;48.204;16.516;2023-05-07T01:05:19;0.45;;;0.28;;
35893;SDS011;21994;48.204;16.516;2023-05-07T01:07:47;0.60;;;0.60;;
35893;SDS011;21994;48.204;16.516;2023-05-07T01:10:13;1.90;;;0.82;;
35893;SDS011;21994;48.204;16.516;2023-05-07T01:12:40;4.57;;;0.85;;
35893;SDS011;21994;48.204;16.516;2023-05-07T01:15:07;1.65;;;0.90;;
35893;SDS011;21994;48.204;16.516;2023-05-07T01:17:35;2.65;;;0.93;;
35893;SDS011;21994;48.204;16.516;2023-05-07T01:20:02;0.17;;;0.17;;
35893;SDS011;21994;48.204;16.516;2023-05-07T01:22:34;0.70;;;0.30;;
35893;SDS011;21994;48.204;16.516;2023-05-07T01:25:04;1.17;;;0.28;;
35893;SDS011;21994;48.204;16.516;2023-05-07T01:27:32;3.35;;;0.40;;
35893;SDS011;21994;48.204;16.516;2023-05-07T01:29:59;1.65;;;0.93;;
35893;SDS011;21994;48.204;16.516;2023-05-07T01:32:27;0.68;;;0.43;;
35893;SDS011;21994;48.204;16.516;2023-05-07T01:35:01;3.15;;;0.70;;
35893;SDS011;21994;48.204;16.516;2023-05-07T01:37:30;1.30;;;0.65;;
35893;SDS011;21994;48.204;16.516;2023-05-07T01:39:57;0.60;;;0.60;;
35893;SDS011;21994;48.204;16.516;2023-05-07T01:42:23;0.82;;;0.52;;
35893;SDS011;21994;48.204;16.516;2023-05-07T01:44:49;0.63;;;0.57;;
35893;SDS011;21994;48.204;16.516;2023-05-07T01:47:15;0.38;;;0.38;;
35893;SDS011;21994;48.204;16.516;2023-05-07T01:49:42;0.73;;;0.73;;
35893;SDS011;21994;48.204;16.516;2023-05-07T01:52:09;0.25;;;0.22;;
35893;SDS011;21994;48.204;16.516;2023-05-07T01:54:36;1.52;;;0.73;;
35893;SDS011;21994;48.204;16.516;2023-05-07T01:57:03;0.40;;;0.40;;
35893;SDS011;21994;48.204;16.516;2023-05-07T01:59:29;0.32;;;0.25;;
35893;SDS011;21994;48.204;16.516;2023-05-07T02:01:55;2.67;;;0.70;;
35893;SDS011;21994;48.204;16.516;2023-05-07T02:04:21;0.45;;;0.45;;
35893;SDS011;21994;48.204;16.516;2023-05-07T02:06:47;5.55;;;0.63;;
35893;SDS011;21994;48.204;16.516;2023-05-07T02:09:13;0.22;;;0.20;;
35893;SDS011;21994;48.204;16.516;2023-05-07T02:11:40;0.57;;;0.47;;
35893;SDS011;21994;48.204;16.516;2023-05-07T02:14:05;0.00;;;0.00;;
35893;SDS011;21994;48.204;16.516;2023-05-07T02:16:31;0.85;;;0.85;;
35893;SDS011;21994;48.204;16.516;2023-05-07T02:18:57;0.75;;;0.50;;
35893;SDS011;21994;48.204;16.516;2023-05-07T02:21:23;0.55;;;0.43;;
35893;SDS011;21994;48.204;16.516;2023-05-07T02:23:50;0.15;;;0.15;;
35893;SDS011;21994;48.204;16.516;2023-05-07T02:26:16;0.20;;;0.20;;
35893;SDS011;21994;48.204;16.516;2023-05-07T02:28:42;0.95;;;0.40;;
35893;SDS011;21994;48.204;16.516;2023-05-07T02:31:08;0.63;;;0.40;;
35893;SDS011;21994;48.204;16.516;2023-05-07T02:33:34;0.10;;;0.10;;
35893;SDS011;21994;48.204;16.516;2023-05-07T02:36:05;0.10;;;0.10;;
35893;SDS011;21994;48.204;16.516;2023-05-07T02:38:33;0.65;;;0.63;;
35893;SDS011;21994;48.204;16.516;2023-05-07T02:40:59;0.45;;;0.28;;
35893;SDS011;21994;48.204;16.516;2023-05-07T02:43:25;1.55;;;0.50;;
35893;SDS011;21994;48.204;16.516;2023-05-07T02:46:00;0.55;;;0.13;;
35893;SDS011;21994;48.204;16.516;2023-05-07T02:48:30;0.47;;;0.22;;
35893;SDS011;21994;48.204;16.516;2023-05-07T02:50:56;0.20;;;0.20;;
35893;SDS011;21994;48.204;16.516;2023-05-07T02:53:23;0.30;;;0.30;;
35893;SDS011;21994;48.204;16.516;2023-05-07T02:55:51;1.17;;;0.30;;
35893;SDS011;21994;48.204;16.516;2023-05-07T02:58:18;0.10;;;0.10;;
35893;SDS011;21994;48.204;16.516;2023-05-07T03:00:45;3.63;;;0.43;;
35893;SDS011;21994;48.204;16.516;2023-05-07T03:03:11;0.65;;;0.40;;
35893;SDS011;21994;48.204;16.516;2023-05-07T03:05:37;0.10;;;0.10;;
35893;SDS011;21994;48.204;16.516;2023-05-07T03:08:03;0.28;;;0.28;;
35893;SDS011;21994;48.204;16.516;2023-05-07T03:10:29;1.15;;;0.68;;
35893;SDS011;21994;48.204;16.516;2023-05-07T03:12:55;0.30;;;0.20;;
35893;SDS011;21994;48.204;16.516;2023-05-07T03:15:21;3.63;;;0.32;;
35893;SDS011;21994;48.204;16.516;2023-05-07T03:17:47;2.67;;;1.05;;
35893;SDS011;21994;48.204;16.516;2023-05-07T03:20:13;0.38;;;0.38;;
35893;SDS011;21994;48.204;16.516;2023-05-07T03:22:40;2.40;;;1.10;;
35893;SDS011;21994;48.204;16.516;2023-05-07T03:25:06;0.65;;;0.57;;
35893;SDS011;21994;48.204;16.516;2023-05-07T03:27:33;4.47;;;0.63;;
35893;SDS011;21994;48.204;16.516;2023-05-07T03:29:59;1.45;;;0.88;;
35893;SDS011;21994;48.204;16.516;2023-05-07T03:32:25;1.08;;;0.82;;
35893;SDS011;21994;48.204;16.516;2023-05-07T03:34:51;1.75;;;0.52;;
35893;SDS011;21994;48.204;16.516;2023-05-07T03:37:17;1.88;;;1.67;;
35893;SDS011;21994;48.204;16.516;2023-05-07T03:39:44;0.77;;;0.68;;
35893;SDS011;21994;48.204;16.516;2023-05-07T03:42:09;1.05;;;0.82;;
35893;SDS011;21994;48.204;16.516;2023-05-07T03:44:35;1.05;;;0.75;;
35893;SDS011;21994;48.204;16.516;2023-05-07T03:47:02;3.72;;;1.30;;
35893;SDS011;21994;48.204;16.516;2023-05-07T03:49:28;1.83;;;1.27;;
35893;SDS011;21994;48.204;16.516;2023-05-07T03:51:54;0.90;;;0.85;;
35893;SDS011;21994;48.204;16.516;2023-05-07T03:54:20;3.28;;;1.77;;
35893;SDS011;21994;48.204;16.516;2023-05-07T03:56:46;5.13;;;1.70;;
35893;SDS011;21994;48.204;16.516;2023-05-07T03:59:12;3.67;;;1.20;;
35893;SDS011;21994;48.204;16.516;2023-05-07T04:01:38;2.47;;;2.28;;
35893;SDS011;21994;48.204;16.516;2023-05-07T04:04:05;4.45;;;1.42;;
35893;SDS011;21994;48.204;16.516;2023-05-07T04:06:31;2.22;;;1.85;;
35893;SDS011;21994;48.204;16.516;2023-05-07T04:08:57;4.85;;;1.52;;
35893;SDS011;21994;48.204;16.516;2023-05-07T04:11:23;3.95;;;2.25;;
35893;SDS011;21994;48.204;16.516;2023-05-07T04:13:49;4.97;;;2.65;;
35893;SDS011;21994;48.204;16.516;2023-05-07T04:16:15;4.53;;;2.40;;
35893;SDS011;21994;48.204;16.516;2023-05-07T04:18:41;3.70;;;2.40;;
35893;SDS011;21994;48.204;16.516;2023-05-07T04:21:13;2.92;;;1.10;;
35893;SDS011;21994;48.204;16.516;2023-05-07T04:23:44;1.35;;;0.75;;
35893;SDS011;21994;48.204;16.516;2023-05-07T04:26:11;3.17;;;1.63;;
35893;SDS011;21994;48.204;16.516;2023-05-07T04:28:38;4.32;;;1.13;;
35893;SDS011;21994;48.204;16.516;2023-05-07T04:31:04;2.15;;;1.17;;
35893;SDS011;21994;48.204;16.516;2023-05-07T04:33:31;3.88;;;2.17;;
35893;SDS011;21994;48.204;16.516;2023-05-07T04:35:58;2.85;;;1.20;;
35893;SDS011;21994;48.204;16.516;2023-05-07T04:38:31;2.42;;;1.73;;
35893;SDS011;21994;48.204;16.516;2023-05-07T04:40:57;5.20;;;1.20;;
35893;SDS011;21994;48.204;16.516;2023-05-07T04:43:28;2.20;;;0.77;;
35893;SDS011;21994;48.204;16.516;2023-05-07T04:45:54;11.02;;;3.42;;
35893;SDS011;21994;48.204;16.516;2023-05-07T04:48:20;3.90;;;1.70;;
35893;SDS011;21994;48.204;16.516;2023-05-07T04:50:49;3.13;;;2.05;;
35893;SDS011;21994;48.204;16.516;2023-05-07T04:53:16;1.33;;;0.77;;
35893;SDS011;21994;48.204;16.516;2023-05-07T04:55:43;2.97;;;1.60;;
35893;SDS011;21994;48.204;16.516;2023-05-07T04:58:10;2.42;;;1.13;;
35893;SDS011;21994;48.204;16.516;2023-05-07T05:00:37;1.58;;;1.15;;
35893;SDS011;21994;48.204;16.516;2023-05-07T05:03:04;2.38;;;1.77;;
35893;SDS011;21994;48.204;16.516;2023-05-07T05:05:32;2.33;;;1.70;;
35893;SDS011;21994;48.204;16.516;2023-05-07T05:07:58;4.22;;;2.13;;
35893;SDS011;21994;48.204;16.516;2023-05-07T05:10:23;6.50;;;2.10;;
35893;SDS011;21994;48.204;16.516;2023-05-07T05:12:50;1.85;;;1.75;;
35893;SDS011;21994;48.204;16.516;2023-05-07T05:15:16;5.57;;;2.40;;
35893;SDS011;21994;48.204;16.516;2023-05-07T05:17:42;4.53;;;2.97;;
35893;SDS011;21994;48.204;16.516;2023-05-07T05:20:08;5.55;;;2.88;;
35893;SDS011;21994;48.204;16.516;2023-05-07T05:22:35;4.53;;;2.15;;
35893;SDS011;21994;48.204;16.516;2023-05-07T05:25:01;5.28;;;3.75;;
35893;SDS011;21994;48.204;16.516;2023-05-07T05:27:28;3.72;;;2.60;;
35893;SDS011;21994;48.204;16.516;2023-05-07T05:29:54;4.10;;;2.22;;
35893;SDS011;21994;48.204;16.516;2023-05-07T05:32:20;7.90;;;3.10;;
35893;SDS011;21994;48.204;16.516;2023-05-07T05:34:47;4.53;;;2.95;;
35893;SDS011;21994;48.204;16.516;2023-05-07T05:37:12;4.13;;;2.58;;
35893;SDS011;21994;48.204;16.516;2023-05-07T05:39:38;5.15;;;2.63;;
35893;SDS011;21994;48.204;16.516;2023-05-07T05:42:04;4.20;;;2.53;;
35893;SDS011;21994;48.204;16.516;2023-05-07T05:44:30;4.90;;;3.67;;
35893;SDS011;21994;48.204;16.516;2023-05-07T05:46:56;4.47;;;2.90;;
35893;SDS011;21994;48.204;16.516;2023-05-07T05:49:24;6.20;;;2.97;;
35893;SDS011;21994;48.204;16.516;2023-05-07T05:51:50;6.53;;;2.70;;
35893;SDS011;21994;48.204;16.516;2023-05-07T05:54:16;5.93;;;3.17;;
35893;SDS011;21994;48.204;16.516;2023-05-07T05:56:42;3.88;;;2.17;;
35893;SDS011;21994;48.204;16.516;2023-05-07T05:59:08;3.38;;;3.00;;
35893;SDS011;21994;48.204;16.516;2023-05-07T06:01:35;6.47;;;2.70;;
35893;SDS011;21994;48.204;16.516;2023-05-07T06:04:01;4.90;;;2.58;;
35893;SDS011;21994;48.204;16.516;2023-05-07T06:06:27;5.75;;;3.88;;
35893;SDS011;21994;48.204;16.516;2023-05-07T06:08:53;5.55;;;1.90;;
35893;SDS011;21994;48.204;16.516;2023-05-07T06:11:19;8.00;;;3.50;;
35893;SDS011;21994;48.204;16.516;2023-05-07T06:13:45;5.80;;;4.05;;
35893;SDS011;21994;48.204;16.516;2023-05-07T06:16:11;4.88;;;2.10;;
35893;SDS011;21994;48.204;16.516;2023-05-07T06:18:37;4.30;;;2.60;;
35893;SDS011;21994;48.204;16.516;2023-05-07T06:21:03;3.92;;;3.15;;
35893;SDS011;21994;48.204;16.516;2023-05-07T06:23:29;4.95;;;4.38;;
35893;SDS011;21994;48.204;16.516;2023-05-07T06:25:55;1.85;;;1.75;;
35893;SDS011;21994;48.204;16.516;2023-05-07T06:28:21;3.33;;;3.03;;
35893;SDS011;21994;48.204;16.516;2023-05-07T06:30:47;3.80;;;2.03;;
35893;SDS011;21994;48.204;16.516;2023-05-07T06:33:15;4.80;;;2.88;;
35893;SDS011;21994;48.204;16.516;2023-05-07T06:35:41;4.25;;;2.28;;
35893;SDS011;21994;48.204;16.516;2023-05-07T06:38:07;3.28;;;2.50;;
35893;SDS011;21994;48.204;16.516;2023-05-07T06:40:32;5.10;;;2.58;;
35893;SDS011;21994;48.204;16.516;2023-05-07T06:42:58;2.80;;;1.25;;
35893;SDS011;21994;48.204;16.516;2023-05-07T06:45:24;2.22;;;1.48;;
35893;SDS011;21994;48.204;16.516;2023-05-07T06:47:50;7.57;;;4.05;;
35893;SDS011;21994;48.204;16.516;2023-05-07T06:50:16;4.03;;;1.75;;
35893;SDS011;21994;48.204;16.516;2023-05-07T06:52:42;3.65;;;3.05;;
35893;SDS011;21994;48.204;16.516;2023-05-07T06:55:08;7.80;;;2.40;;
35893;SDS011;21994;48.204;16.516;2023-05-07T06:57:36;4.28;;;1.67;;
35893;SDS011;21994;48.204;16.516;2023-05-07T07:00:03;7.90;;;2.85;;
35893;SDS011;21994;48.204;16.516;2023-05-07T07:02:32;3.80;;;2.13;;
35893;SDS011;21994;48.204;16.516;2023-05-07T07:04:58;5.95;;;2.70;;
35893;SDS011;21994;48.204;16.516;2023-05-07T07:07:23;2.03;;;1.38;;
35893;SDS011;21994;48.204;16.516;2023-05-07T07:09:49;3.88;;;1.85;;
35893;SDS011;21994;48.204;16.516;2023-05-07T07:12:16;2.45;;;1.08;;
35893;SDS011;21994;48.204;16.516;2023-05-07T07:14:42;4.82;;;2.13;;
35893;SDS011;21994;48.204;16.516;2023-05-07T07:17:08;4.15;;;2.15;;
35893;SDS011;21994;48.204;16.516;2023-05-07T07:19:34;2.70;;;1.98;;
35893;SDS011;21994;48.204;16.516;2023-05-07T07:22:00;3.10;;;2.38;;
35893;SDS011;21994;48.204;16.516;2023-05-07T07:24:26;5.07;;;2.53;;
35893;SDS011;21994;48.204;16.516;2023-05-07T07:26:52;3.13;;;1.83;;
35893;SDS011;21994;48.204;16.516;2023-05-07T07:29:18;1.88;;;1.60;;
35893;SDS011;21994;48.204;16.516;2023-05-07T07:31:44;6.80;;;3.35;;
35893;SDS011;21994;48.204;16.516;2023-05-07T07:34:10;3.30;;;1.92;;
35893;SDS011;21994;48.204;16.516;2023-05-07T07:36:36;1.40;;;1.25;;
35893;SDS011;21994;48.204;16.516;2023-05-07T07:39:02;8.85;;;4.10;;
35893;SDS011;21994;48.204;16.516;2023-05-07T07:41:28;2.17;;;1.25;;
35893;SDS011;21994;48.204;16.516;2023-05-07T07:43:53;5.90;;;2.92;;
35893;SDS011;21994;48.204;16.516;2023-05-07T07:46:19;3.08;;;2.20;;
35893;SDS011;21994;48.204;16.516;2023-05-07T07:48:45;3.92;;;3.53;;
35893;SDS011;21994;48.204;16.516;2023-05-07T07:51:11;3.45;;;1.80;;
35893;SDS011;21994;48.204;16.516;2023-05-07T07:53:37;2.03;;;1.75;;
35893;SDS011;21994;48.204;16.516;2023-05-07T07:56:06;3.72;;;2.05;;
35893;SDS011;21994;48.204;16.516;2023-05-07T07:58:32;4.78;;;3.13;;
35893;SDS011;21994;48.204;16.516;2023-05-07T08:00:58;2.25;;;1.15;;
35893;SDS011;21994;48.204;16.516;2023-05-07T08:03:24;2.97;;;1.98;;
35893;SDS011;21994;48.204;16.516;2023-05-07T08:05:50;2.95;;;2.40;;
35893;SDS011;21994;48.204;16.516;2023-05-07T08:08:16;4.55;;;2.70;;
35893;SDS011;21994;48.204;16.516;2023-05-07T08:10:42;4.10;;;2.70;;
35893;SDS011;21994;48.204;16.516;2023-05-07T08:13:08;3.05;;;2.28;;
35893;SDS011;21994;48.204;16.516;2023-05-07T08:15:34;3.15;;;1.95;;
35893;SDS011;21994;48.204;16.516;2023-05-07T08:18:01;7.15;;;3.22;;
35893;SDS011;21994;48.204;16.516;2023-05-07T08:20:28;3.25;;;1.83;;
35893;SDS011;21994;48.204;16.516;2023-05-07T08:22:54;2.22;;;1.30;;
35893;SDS011;21994;48.204;16.516;2023-05-07T08:25:20;3.58;;;1.73;;
35893;SDS011;21994;48.204;16.516;2023-05-07T08:27:46;1.35;;;1.17;;
35893;SDS011;21994;48.204;16.516;2023-05-07T08:30:12;8.57;;;2.42;;
35893;SDS011;21994;48.204;16.516;2023-05-07T08:32:39;5.70;;;3.17;;
35893;SDS011;21994;48.204;16.516;2023-05-07T08:35:05;2.70;;;2.20;;
35893;SDS011;21994;48.204;16.516;2023-05-07T08:37:31;3.35;;;2.88;;
35893;SDS011;21994;48.204;16.516;2023-05-07T08:39:57;4.30;;;2.75;;
35893;SDS011;21994;48.204;16.516;2023-05-07T08:42:23;1.90;;;1.40;;
35893;SDS011;21994;48.204;16.516;2023-05-07T08:44:51;1.63;;;1.15;;
35893;SDS011;21994;48.204;16.516;2023-05-07T08:47:20;5.15;;;2.17;;
35893;SDS011;21994;48.204;16.516;2023-05-07T08:49:54;3.25;;;1.83;;
35893;SDS011;21994;48.204;16.516;2023-05-07T08:52:20;2.50;;;1.88;;
35893;SDS011;21994;48.204;16.516;2023-05-07T08:54:46;3.60;;;1.92;;
35893;SDS011;21994;48.204;16.516;2023-05-07T08:57:12;3.17;;;1.73;;
35893;SDS011;21994;48.204;16.516;2023-05-07T08:59:39;6.93;;;1.67;;
35893;SDS011;21994;48.204;16.516;2023-05-07T09:02:06;2.50;;;1.50;;
35893;SDS011;21994;48.204;16.516;2023-05-07T09:04:35;4.55;;;2.58;;
35893;SDS011;21994;48.204;16.516;2023-05-07T09:07:01;4.13;;;2.28;;
35893;SDS011;21994;48.204;16.516;2023-05-07T09:09:31;1.60;;;1.25;;
35893;SDS011;21994;48.204;16.516;2023-05-07T09:11:58;2.05;;;1.10;;
35893;SDS011;21994;48.204;16.516;2023-05-07T09:14:25;2.50;;;1.95;;
35893;SDS011;21994;48.204;16.516;2023-05-07T09:16:54;12.95;;;1.75;;
35893;SDS011;21994;48.204;16.516;2023-05-07T09:19:23;2.25;;;2.10;;
35893;SDS011;21994;48.204;16.516;2023-05-07T09:21:58;4.43;;;2.35;;
35893;SDS011;21994;48.204;16.516;2023-05-07T09:24:26;2.83;;;1.90;;
35893;SDS011;21994;48.204;16.516;2023-05-07T09:26:53;2.25;;;1.85;;
35893;SDS011;21994;48.204;16.516;2023-05-07T09:29:20;3.03;;;1.45;;
35893;SDS011;21994;48.204;16.516;2023-05-07T09:31:46;2.65;;;2.30;;
35893;SDS011;21994;48.204;16.516;2023-05-07T09:34:12;4.45;;;1.98;;
35893;SDS011;21994;48.204;16.516;2023-05-07T09:36:38;2.38;;;1.88;;
35893;SDS011;21994;48.204;16.516;2023-05-07T09:39:04;2.47;;;1.70;;
35893;SDS011;21994;48.204;16.516;2023-05-07T09:41:30;2.13;;;1.48;;
35893;SDS011;21994;48.204;16.516;2023-05-07T09:43:59;1.38;;;1.27;;
35893;SDS011;21994;48.204;16.516;2023-05-07T09:46:30;1.42;;;0.90;;
35893;SDS011;21994;48.204;16.516;2023-05-07T09:48:58;2.00;;;1.75;;
35893;SDS011;21994;48.204;16.516;2023-05-07T09:51:33;0.63;;;0.40;;
35893;SDS011;21994;48.204;16.516;2023-05-07T09:54:13;1.95;;;1.45;;
35893;SDS011;21994;48.204;16.516;2023-05-07T09:56:40;2.42;;;1.13;;
35893;SDS011;21994;48.204;16.516;2023-05-07T09:59:08;2.40;;;1.52;;
35893;SDS011;21994;48.204;16.516;2023-05-07T10:01:38;0.97;;;0.80;;
35893;SDS011;21994;48.204;16.516;2023-05-07T10:04:07;2.22;;;1.17;;
35893;SDS011;21994;48.204;16.516;2023-05-07T10:06:37;2.67;;;1.27;;
35893;SDS011;21994;48.204;16.516;2023-05-07T10:09:03;2.20;;;1.77;;
35893;SDS011;21994;48.204;16.516;2023-05-07T10:11:32;3.03;;;2.22;;
35893;SDS011;21994;48.204;16.516;2023-05-07T10:13:59;2.13;;;1.17;;
35893;SDS011;21994;48.204;16.516;2023-05-07T10:16:27;1.00;;;1.00;;
35893;SDS011;21994;48.204;16.516;2023-05-07T10:18:58;1.80;;;1.38;;
35893;SDS011;21994;48.204;16.516;2023-05-07T10:21:24;3.03;;;1.27;;
35893;SDS011;21994;48.204;16.516;2023-05-07T10:24:15;2.45;;;1.73;;
35893;SDS011;21994;48.204;16.516;2023-05-07T10:26:48;2.05;;;1.08;;
35893;SDS011;21994;48.204;16.516;2023-05-07T10:35:24;1.95;;;1.30;;
35893;SDS011;21994;48.204;16.516;2023-05-07T10:37:55;2.00;;;1.08;;
35893;SDS011;21994;48.204;16.516;2023-05-07T10:40:21;1.50;;;0.82;;
35893;SDS011;21994;48.204;16.516;2023-05-07T10:42:57;3.38;;;1.85;;
35893;SDS011;21994;48.204;16.516;2023-05-07T10:45:27;2.58;;;1.60;;
35893;SDS011;21994;48.204;16.516;2023-05-07T10:50:43;1.67;;;1.08;;
35893;SDS011;21994;48.204;16.516;2023-05-07T10:55:43;0.50;;;0.50;;
35893;SDS011;21994;48.204;16.516;2023-05-07T11:00:46;2.53;;;1.63;;
35893;SDS011;21994;48.204;16.516;2023-05-07T11:03:14;2.15;;;1.77;;
35893;SDS011;21994;48.204;16.516;2023-05-07T11:05:40;4.30;;;1.73;;
35893;SDS011;21994;48.204;16.516;2023-05-07T11:08:07;1.55;;;1.23;;
35893;SDS011;21994;48.204;16.516;2023-05-07T11:10:50;2.45;;;1.67;;
35893;SDS011;21994;48.204;16.516;2023-05-07T11:13:18;3.55;;;1.13;;
35893;SDS011;21994;48.204;16.516;2023-05-07T11:18:51;2.35;;;1.50;;
35893;SDS011;21994;48.204;16.516;2023-05-07T11:21:31;2.60;;;1.73;;
35893;SDS011;21994;48.204;16.516;2023-05-07T11:24:05;2.15;;;0.98;;
35893;SDS011;21994;48.204;16.516;2023-05-07T11:26:46;5.40;;;1.67;;
35893;SDS011;21994;48.204;16.516;2023-05-07T11:29:15;1.67;;;1.23;;
35893;SDS011;21994;48.204;16.516;2023-05-07T11:31:50;1.13;;;1.02;;
35893;SDS011;21994;48.204;16.516;2023-05-07T11:36:50;0.95;;;0.63;;
35893;SDS011;21994;48.204;16.516;2023-05-07T11:39:31;1.45;;;0.98;;
35893;SDS011;21994;48.204;16.516;2023-05-07T11:41:59;4.07;;;1.65;;
35893;SDS011;21994;48.204;16.516;2023-05-07T11:44:25;0.65;;;0.57;;
35893;SDS011;21994;48.204;16.516;2023-05-07T11:47:11;2.65;;;1.42;;
35893;SDS011;21994;48.204;16.516;2023-05-07T11:49:43;2.42;;;1.55;;
35893;SDS011;21994;48.204;16.516;2023-05-07T11:52:14;0.68;;;0.68;;
35893;SDS011;21994;48.204;16.516;2023-05-07T11:57:18;1.45;;;1.35;;
35893;SDS011;21994;48.204;16.516;2023-05-07T11:59:45;2.65;;;1.35;;
35893;SDS011;21994;48.204;16.516;2023-05-07T12:02:15;0.68;;;0.68;;
35893;SDS011;21994;48.204;16.516;2023-05-07T12:04:42;1.65;;;1.17;;
35893;SDS011;21994;48.204;16.516;2023-05-07T12:07:12;0.90;;;0.70;;
35893;SDS011;21994;48.204;16.516;2023-05-07T12:09:40;1.70;;;0.50;;
35893;SDS011;21994;48.204;16.516;2023-05-07T12:12:07;1.67;;;1.35;;
35893;SDS011;21994;48.204;16.516;2023-05-07T12:14:37;1.58;;;1.23;;
35893;SDS011;21994;48.204;16.516;2023-05-07T12:17:05;1.83;;;1.52;;
35893;SDS011;21994;48.204;16.516;2023-05-07T12:19:36;2.58;;;1.30;;
35893;SDS011;21994;48.204;16.516;2023-05-07T12:22:04;1.98;;;1.00;;
35893;SDS011;21994;48.204;16.516;2023-05-07T12:24:44;2.80;;;0.75;;
35893;SDS011;21994;48.204;16.516;2023-05-07T12:27:15;2.08;;;1.15;;
35893;SDS011;21994;48.204;16.516;2023-05-07T12:29:48;2.53;;;1.58;;
35893;SDS011;21994;48.204;16.516;2023-05-07T12:32:21;6.45;;;1.35;;
35893;SDS011;21994;48.204;16.516;2023-05-07T12:34:50;1.90;;;0.93;;
35893;SDS011;21994;48.204;16.516;2023-05-07T12:37:22;1.67;;;1.35;;
35893;SDS011;21994;48.204;16.516;2023-05-07T12:40:03;2.30;;;1.20;;
35893;SDS011;21994;48.204;16.516;2023-05-07T12:42:36;2.38;;;1.02;;
35893;SDS011;21994;48.204;16.516;2023-05-07T12:45:10;1.13;;;0.70;;
35893;SDS011;21994;48.204;16.516;2023-05-07T12:47:38;0.30;;;0.30;;
35893;SDS011;21994;48.204;16.516;2023-05-07T12:50:07;1.20;;;0.93;;
35893;SDS011;21994;48.204;16.516;2023-05-07T12:52:33;2.75;;;0.95;;
35893;SDS011;21994;48.204;16.516;2023-05-07T12:55:09;1.33;;;1.23;;
35893;SDS011;21994;48.204;16.516;2023-05-07T12:57:39;3.10;;;1.35;;
35893;SDS011;21994;48.204;16.516;2023-05-07T13:00:07;0.50;;;0.50;;
35893;SDS011;21994;48.204;16.516;2023-05-07T13:02:36;0.47;;;0.30;;
35893;SDS011;21994;48.204;16.516;2023-05-07T13:05:04;0.40;;;0.40;;
35893;SDS011;21994;48.204;16.516;2023-05-07T13:07:31;1.58;;;0.70;;
35893;SDS011;21994;48.204;16.516;2023-05-07T13:09:57;1.67;;;0.50;;
35893;SDS011;21994;48.204;16.516;2023-05-07T13:12:22;0.35;;;0.30;;
35893;SDS011;21994;48.204;16.516;2023-05-07T13:14:48;1.48;;;0.98;;
35893;SDS011;21994;48.204;16.516;2023-05-07T13:17:14;0.50;;;0.50;;
35893;SDS011;21994;48.204;16.516;2023-05-07T13:19:40;2.42;;;0.90;;
35893;SDS011;21994;48.204;16.516;2023-05-07T13:22:06;1.38;;;0.60;;
35893;SDS011;21994;48.204;16.516;2023-05-07T13:24:32;0.40;;;0.30;;
35893;SDS011;21994;48.204;16.516;2023-05-07T13:26:58;1.75;;;0.77;;
35893;SDS011;21994;48.204;16.516;2023-05-07T13:29:24;1.15;;;0.80;;
35893;SDS011;21994;48.204;16.516;2023-05-07T13:31:54;1.98;;;0.82;;
35893;SDS011;21994;48.204;16.516;2023-05-07T13:34:21;1.75;;;0.70;;
35893;SDS011;21994;48.204;16.516;2023-05-07T13:36:47;0.85;;;0.85;;
35893;SDS011;21994;48.204;16.516;2023-05-07T13:39:13;1.25;;;0.93;;
35893;SDS011;21994;48.204;16.516;2023-05-07T13:41:39;0.93;;;0.80;;
35893;SDS011;21994;48.204;16.516;2023-05-07T13:44:05;0.40;;;0.40;;
35893;SDS011;21994;48.204;16.516;2023-05-07T13:46:31;1.73;;;0.65;;
35893;SDS011;21994;48.204;16.516;2023-05-07T13:48:56;1.05;;;0.45;;
35893;SDS011;21994;48.204;16.516;2023-05-07T13:51:22;1.23;;;0.93;;
35893;SDS011;21994;48.204;16.516;2023-05-07T13:53:48;1.30;;;0.80;;
35893;SDS011;21994;48.204;16.516;2023-05-07T13:56:15;0.85;;;0.85;;
35893;SDS011;21994;48.204;16.516;2023-05-07T13:58:41;0.75;;;0.52;;
35893;SDS011;21994;48.204;16.516;2023-05-07T14:01:07;0.68;;;0.68;;
35893;SDS011;21994;48.204;16.516;2023-05-07T14:03:33;2.55;;;1.23;;
35893;SDS011;21994;48.204;16.516;2023-05-07T14:05:59;2.60;;;0.82;;
35893;SDS011;21994;48.204;16.516;2023-05-07T14:08:26;2.38;;;0.50;;
35893;SDS011;21994;48.204;16.516;2023-05-07T14:10:53;2.47;;;0.93;;
35893;SDS011;21994;48.204;16.516;2023-05-07T14:13:19;1.13;;;0.65;;
35893;SDS011;21994;48.204;16.516;2023-05-07T14:15:45;2.20;;;0.98;;
35893;SDS011;21994;48.204;16.516;2023-05-07T14:18:15;2.05;;;0.77;;
35893;SDS011;21994;48.204;16.516;2023-05-07T14:20:41;0.25;;;0.25;;
35893;SDS011;21994;48.204;16.516;2023-05-07T14:23:11;3.77;;;0.53;;
35893;SDS011;21994;48.204;16.516;2023-05-07T14:25:37;1.17;;;0.60;;
35893;SDS011;21994;48.204;16.516;2023-05-07T14:28:03;1.45;;;0.47;;
35893;SDS011;21994;48.204;16.516;2023-05-07T14:30:29;1.95;;;0.73;;
35893;SDS011;21994;48.204;16.516;2023-05-07T14:32:55;0.75;;;0.40;;
35893;SDS011;21994;48.204;16.516;2023-05-07T14:35:21;1.40;;;0.82;;
35893;SDS011;21994;48.204;16.516;2023-05-07T14:37:47;0.68;;;0.30;;
35893;SDS011;21994;48.204;16.516;2023-05-07T14:40:13;1.27;;;0.40;;
35893;SDS011;21994;48.204;16.516;2023-05-07T14:42:39;0.47;;;0.30;;
35893;SDS011;21994;48.204;16.516;2023-05-07T14:45:05;0.75;;;0.40;;
35893;SDS011;21994;48.204;16.516;2023-05-07T14:47:32;1.08;;;0.82;;
35893;SDS011;21994;48.204;16.516;2023-05-07T14:49:58;0.70;;;0.32;;
35893;SDS011;21994;48.204;16.516;2023-05-07T14:52:26;0.45;;;0.43;;
35893;SDS011;21994;48.204;16.516;2023-05-07T14:54:52;0.45;;;0.30;;
35893;SDS011;21994;48.204;16.516;2023-05-07T14:57:18;0.73;;;0.73;;